Time;durP1;ratioP1;P1;durP2;ratioP2;P2;SDS_P1;SDS_P2;PMS_P1;PMS_P2;Temp;Humidity;BMP_temperature;BMP_pressure;BME280_temperature;BME280_humidity;BME280_pressure;Samples;Min_cycle;Max_cycle;Signal;HPM_P1;HPM_P2
2023/11/05 00:00:25;;;;;;;4.78;1.77;;;;;;;;;;6230349;23;20020;-80
2023/11/05 00:02:56;;;;;;;3.55;1.60;;;;;;;;;;6256339;23;20012;-82
2023/11/05 00:05:26;;;;;;;7.00;2.00;;;;;;;;;;6219021;23;20020;-81
2023/11/05 00:07:57;;;;;;;4.18;1.40;;;;;;;;;;6246794;23;20016;-82
2023/11/05 00:10:27;;;;;;;3.13;1.33;;;;;;;;;;6217986;23;20351;-82
2023/11/05 00:12:57;;;;;;;3.80;1.30;;;;;;;;;;6245348;23;20016;-81
2023/11/05 00:15:27;;;;;;;3.95;1.30;;;;;;;;;;6246323;23;20015;-81
2023/11/05 00:17:58;;;;;;;4.20;1.17;;;;;;;;;;6219079;23;20024;-82
2023/11/05 00:20:28;;;;;;;3.63;1.85;;;;;;;;;;6246495;23;20039;-81
2023/11/05 00:22:57;;;;;;;6.22;2.25;;;;;;;;;;6246215;23;20019;-81
2023/11/05 00:25:27;;;;;;;4.68;2.00;;;;;;;;;;6255080;23;20018;-81
2023/11/05 00:27:59;;;;;;;5.45;1.58;;;;;;;;;;6269907;23;20019;-81
2023/11/05 00:30:29;;;;;;;3.78;1.63;;;;;;;;;;6259274;23;20012;-80
2023/11/05 00:32:59;;;;;;;4.65;1.33;;;;;;;;;;6198597;23;20024;-80
2023/11/05 00:35:30;;;;;;;5.32;1.70;;;;;;;;;;6251289;23;20022;-80
2023/11/05 00:38:00;;;;;;;3.72;1.70;;;;;;;;;;6253049;23;20019;-81
2023/11/05 00:40:30;;;;;;;3.97;1.60;;;;;;;;;;6220178;23;20439;-81
2023/11/05 00:43:01;;;;;;;4.47;1.50;;;;;;;;;;6256060;23;20415;-81
2023/11/05 00:45:31;;;;;;;5.55;1.70;;;;;;;;;;6246221;23;20008;-81
2023/11/05 00:48:01;;;;;;;6.10;1.60;;;;;;;;;;6246086;23;20027;-81
2023/11/05 00:50:31;;;;;;;5.15;1.50;;;;;;;;;;6256227;23;20016;-80
2023/11/05 00:53:03;;;;;;;6.00;1.60;;;;;;;;;;6255661;23;20015;-80
2023/11/05 00:55:34;;;;;;;4.65;1.52;;;;;;;;;;6229913;23;20019;-81
2023/11/05 00:58:04;;;;;;;4.40;1.42;;;;;;;;;;6218683;23;20016;-80
2023/11/05 01:00:34;;;;;;;5.68;1.50;;;;;;;;;;6245374;23;20438;-81
2023/11/05 01:03:04;;;;;;;4.65;1.98;;;;;;;;;;6219332;23;20104;-80
2023/11/05 01:05:34;;;;;;;3.88;1.73;;;;;;;;;;6245486;23;20119;-79
2023/11/05 01:08:04;;;;;;;4.55;1.50;;;;;;;;;;6245361;23;20042;-81
2023/11/05 01:10:34;;;;;;;4.22;2.22;;;;;;;;;;6245618;23;20019;-80
2023/11/05 01:13:05;;;;;;;4.47;1.48;;;;;;;;;;6245382;23;20359;-80
2023/11/05 01:15:35;;;;;;;3.63;1.50;;;;;;;;;;6245612;23;20020;-81
2023/11/05 01:18:05;;;;;;;4.22;1.63;;;;;;;;;;6217930;23;20024;-79
2023/11/05 01:20:35;;;;;;;4.90;2.05;;;;;;;;;;6217437;23;20458;-79
2023/11/05 01:23:06;;;;;;;4.82;1.98;;;;;;;;;;6245052;23;20027;-80
2023/11/05 01:25:36;;;;;;;5.03;1.80;;;;;;;;;;6194222;23;20024;-80
2023/11/05 01:28:06;;;;;;;7.20;2.22;;;;;;;;;;6245467;23;20329;-80
2023/11/05 01:30:36;;;;;;;6.47;2.55;;;;;;;;;;6219205;23;20071;-80
2023/11/05 01:33:06;;;;;;;6.50;2.30;;;;;;;;;;6245525;23;20016;-81
2023/11/05 01:35:37;;;;;;;6.85;2.63;;;;;;;;;;6217738;23;20020;-80
2023/11/05 01:38:07;;;;;;;9.75;2.38;;;;;;;;;;6193505;23;20343;-80
2023/11/05 01:40:37;;;;;;;6.18;2.20;;;;;;;;;;6245246;23;20024;-81
2023/11/05 01:43:07;;;;;;;4.90;1.98;;;;;;;;;;6244889;23;20023;-81
2023/11/05 01:45:38;;;;;;;6.13;2.28;;;;;;;;;;6217881;23;20020;-80
2023/11/05 01:48:09;;;;;;;4.45;1.95;;;;;;;;;;6254989;23;20015;-81
2023/11/05 01:50:41;;;;;;;5.97;2.70;;;;;;;;;;6218112;23;20024;-80
2023/11/05 01:53:11;;;;;;;4.55;1.98;;;;;;;;;;6255255;23;20451;-80
2023/11/05 01:55:41;;;;;;;5.78;2.30;;;;;;;;;;6217379;23;20035;-80
2023/11/05 01:58:12;;;;;;;4.40;1.95;;;;;;;;;;6216613;23;20020;-80
2023/11/05 02:00:43;;;;;;;4.90;1.98;;;;;;;;;;6229262;23;20019;-80
2023/11/05 02:03:14;;;;;;;6.70;2.15;;;;;;;;;;6217451;23;20027;-80
2023/11/05 02:05:45;;;;;;;8.10;2.25;;;;;;;;;;6217514;23;20359;-80
2023/11/05 02:08:15;;;;;;;4.20;1.88;;;;;;;;;;6254577;23;20013;-79
2023/11/05 02:10:46;;;;;;;5.38;2.10;;;;;;;;;;6220115;23;20020;-81
2023/11/05 02:13:17;;;;;;;4.07;2.20;;;;;;;;;;6256110;23;20012;-81
2023/11/05 02:15:48;;;;;;;7.25;1.75;;;;;;;;;;6255737;23;20019;-80
2023/11/05 02:18:20;;;;;;;5.43;2.40;;;;;;;;;;6255635;23;20019;-80
2023/11/05 02:20:51;;;;;;;6.30;2.03;;;;;;;;;;6194244;23;20018;-80
2023/11/05 02:23:22;;;;;;;8.45;2.53;;;;;;;;;;6217621;23;20024;-80
2023/11/05 02:25:51;;;;;;;6.50;2.80;;;;;;;;;;6218192;23;20031;-80
2023/11/05 02:28:21;;;;;;;5.28;2.30;;;;;;;;;;6218874;23;20035;-81
2023/11/05 02:30:54;;;;;;;4.18;1.88;;;;;;;;;;6193929;22;20020;-79
2023/11/05 02:33:25;;;;;;;5.03;2.00;;;;;;;;;;6219147;23;20043;-80
2023/11/05 02:35:55;;;;;;;5.07;2.40;;;;;;;;;;6256439;23;20466;-80
2023/11/05 02:38:25;;;;;;;6.78;2.40;;;;;;;;;;6218252;23;20028;-81
2023/11/05 02:40:55;;;;;;;9.07;2.33;;;;;;;;;;6245705;23;20016;-80
2023/11/05 02:43:25;;;;;;;5.18;1.92;;;;;;;;;;6245840;23;20344;-80
2023/11/05 02:45:56;;;;;;;6.10;2.75;;;;;;;;;;6219102;23;20027;-80
2023/11/05 02:48:26;;;;;;;5.13;3.03;;;;;;;;;;6194010;23;20024;-80
2023/11/05 02:50:56;;;;;;;7.63;2.38;;;;;;;;;;6218594;23;20348;-80
2023/11/05 02:53:26;;;;;;;6.85;2.38;;;;;;;;;;6245618;23;20107;-80
2023/11/05 02:55:56;;;;;;;6.22;2.25;;;;;;;;;;6218294;23;20012;-80
2023/11/05 02:58:26;;;;;;;6.55;2.28;;;;;;;;;;6218260;23;20020;-80
2023/11/05 03:00:57;;;;;;;5.03;2.05;;;;;;;;;;6194266;23;20455;-80
2023/11/05 03:03:28;;;;;;;5.25;1.92;;;;;;;;;;6219542;23;20023;-80
2023/11/05 03:05:58;;;;;;;8.50;2.10;;;;;;;;;;6230116;23;20019;-80
2023/11/05 03:08:28;;;;;;;4.70;2.33;;;;;;;;;;6245732;23;20020;-80
2023/11/05 03:10:58;;;;;;;6.57;2.28;;;;;;;;;;6219404;23;20028;-80
2023/11/05 03:13:28;;;;;;;4.47;2.08;;;;;;;;;;6246186;23;20016;-80
2023/11/05 03:15:58;;;;;;;5.03;2.00;;;;;;;;;;6245867;23;20020;-80
2023/11/05 03:18:28;;;;;;;5.45;1.88;;;;;;;;;;6246508;23;20016;-80
2023/11/05 03:20:58;;;;;;;4.22;2.20;;;;;;;;;;6218930;23;20021;-80
2023/11/05 03:23:28;;;;;;;7.20;2.40;;;;;;;;;;6220575;23;20020;-80
2023/11/05 03:25:58;;;;;;;3.83;1.90;;;;;;;;;;6246191;23;20023;-80
2023/11/05 03:28:28;;;;;;;4.97;2.00;;;;;;;;;;6193497;23;20024;-80
2023/11/05 03:30:58;;;;;;;5.55;2.50;;;;;;;;;;6245471;23;20024;-80
2023/11/05 03:33:29;;;;;;;7.88;2.33;;;;;;;;;;6218387;23;20019;-79
2023/11/05 03:36:00;;;;;;;3.20;1.70;;;;;;;;;;6220363;23;20020;-80
2023/11/05 03:38:29;;;;;;;6.50;2.50;;;;;;;;;;6195476;23;20024;-79
2023/11/05 03:41:00;;;;;;;6.85;2.80;;;;;;;;;;6220375;23;20020;-79
2023/11/05 03:43:30;;;;;;;10.10;3.10;;;;;;;;;;6220380;23;20032;-80
2023/11/05 03:46:02;;;;;;;8.65;2.55;;;;;;;;;;6219467;23;20016;-80
2023/11/05 03:48:32;;;;;;;6.25;3.00;;;;;;;;;;6258374;23;20019;-80
2023/11/05 03:51:05;;;;;;;4.55;2.08;;;;;;;;;;6258057;23;20008;-79
2023/11/05 03:53:35;;;;;;;6.15;2.25;;;;;;;;;;6247414;23;20039;-79
2023/11/05 03:56:07;;;;;;;5.97;2.45;;;;;;;;;;6257554;23;20462;-80
2023/11/05 03:58:37;;;;;;;5.25;2.33;;;;;;;;;;6220147;23;20024;-79
2023/11/05 04:01:17;;;;;;;5.60;2.38;;;;;;;;;;6220348;23;20013;-80
2023/11/05 04:03:48;;;;;;;5.80;2.42;;;;;;;;;;6257635;23;20013;-80
2023/11/05 04:06:19;;;;;;;5.72;2.53;;;;;;;;;;6247815;23;20008;-79
2023/11/05 04:08:49;;;;;;;5.38;2.15;;;;;;;;;;6247032;23;20027;-79
2023/11/05 04:11:19;;;;;;;9.73;2.00;;;;;;;;;;6248145;23;20012;-79
2023/11/05 04:13:49;;;;;;;6.28;2.33;;;;;;;;;;6221243;23;20012;-79
2023/11/05 04:16:19;;;;;;;5.90;2.10;;;;;;;;;;6220847;23;20031;-79
2023/11/05 04:18:49;;;;;;;7.22;2.53;;;;;;;;;;6246737;23;20008;-79
2023/11/05 04:21:21;;;;;;;5.80;2.40;;;;;;;;;;6219963;23;20016;-80
2023/11/05 04:23:54;;;;;;;9.13;3.03;;;;;;;;;;6257644;23;20339;-79
2023/11/05 04:26:25;;;;;;;8.82;3.00;;;;;;;;;;6219821;23;20447;-80
2023/11/05 04:28:55;;;;;;;5.57;2.50;;;;;;;;;;6219514;23;20209;-80
2023/11/05 04:31:25;;;;;;;6.10;2.60;;;;;;;;;;6220637;23;20023;-80
2023/11/05 04:33:57;;;;;;;10.38;3.30;;;;;;;;;;6257554;23;20008;-80
2023/11/05 04:36:27;;;;;;;7.18;2.72;;;;;;;;;;6219652;23;20368;-80
2023/11/05 04:38:57;;;;;;;9.05;3.10;;;;;;;;;;6247064;23;20008;-80
2023/11/05 04:41:26;;;;;;;7.75;2.97;;;;;;;;;;6246927;23;20019;-80
2023/11/05 04:43:57;;;;;;;6.28;2.67;;;;;;;;;;6221139;23;20020;-80
2023/11/05 04:46:28;;;;;;;5.60;2.85;;;;;;;;;;6230232;23;20016;-80
2023/11/05 04:48:59;;;;;;;6.22;3.05;;;;;;;;;;6247178;23;20020;-80
2023/11/05 04:51:29;;;;;;;6.38;2.83;;;;;;;;;;6247614;23;20016;-80
2023/11/05 04:53:59;;;;;;;5.72;2.20;;;;;;;;;;6219260;23;20335;-80
2023/11/05 04:56:29;;;;;;;4.75;2.55;;;;;;;;;;6219428;23;20020;-80
2023/11/05 04:58:59;;;;;;;6.57;2.97;;;;;;;;;;6251598;23;20018;-80
2023/11/05 05:01:29;;;;;;;7.07;2.83;;;;;;;;;;6255147;23;20016;-80
2023/11/05 05:04:00;;;;;;;7.75;2.88;;;;;;;;;;6224990;23;20026;-80
2023/11/05 05:06:30;;;;;;;8.23;2.92;;;;;;;;;;6231124;23;20023;-80
2023/11/05 05:08:59;;;;;;;8.52;3.47;;;;;;;;;;6247376;23;20435;-81
2023/11/05 05:11:32;;;;;;;5.68;2.67;;;;;;;;;;6232299;23;20012;-81
2023/11/05 05:14:04;;;;;;;5.38;2.90;;;;;;;;;;6257439;23;20019;-81
2023/11/05 05:16:35;;;;;;;4.93;2.30;;;;;;;;;;6194871;23;20139;-80
2023/11/05 05:19:05;;;;;;;5.20;2.60;;;;;;;;;;6246764;23;20039;-80
2023/11/05 05:21:41;;;;;;;5.30;2.33;;;;;;;;;;6246560;23;20474;-81
2023/11/05 05:24:11;;;;;;;5.28;2.30;;;;;;;;;;6195381;23;20016;-80
2023/11/05 05:26:41;;;;;;;4.53;1.98;;;;;;;;;;6246293;23;20016;-81
2023/11/05 05:29:12;;;;;;;8.38;2.25;;;;;;;;;;6257076;23;20015;-79
2023/11/05 05:31:42;;;;;;;4.22;1.90;;;;;;;;;;6220043;23;20341;-80
2023/11/05 05:34:11;;;;;;;6.10;2.22;;;;;;;;;;6246344;23;20344;-80
2023/11/05 05:36:41;;;;;;;7.30;2.60;;;;;;;;;;6247113;23;20016;-79
2023/11/05 05:39:12;;;;;;;5.93;2.60;;;;;;;;;;6246384;23;20343;-80
2023/11/05 05:41:42;;;;;;;6.93;2.53;;;;;;;;;;6220209;23;20470;-80
2023/11/05 05:44:12;;;;;;;4.93;2.35;;;;;;;;;;6220018;23;20012;-80
2023/11/05 05:46:43;;;;;;;5.97;2.33;;;;;;;;;;6245907;23;20351;-80
2023/11/05 05:49:12;;;;;;;4.45;2.35;;;;;;;;;;6246652;23;20017;-80
2023/11/05 05:51:42;;;;;;;4.72;1.92;;;;;;;;;;6194084;23;20024;-80
2023/11/05 05:54:14;;;;;;;4.43;2.35;;;;;;;;;;6256361;23;20023;-79
2023/11/05 05:56:45;;;;;;;5.60;2.40;;;;;;;;;;6218003;23;20027;-79
2023/11/05 05:59:14;;;;;;;5.22;2.05;;;;;;;;;;6219702;23;20023;-80
2023/11/05 06:01:45;;;;;;;6.13;2.08;;;;;;;;;;6256612;23;20015;-80
2023/11/05 06:04:16;;;;;;;6.43;2.47;;;;;;;;;;6245809;23;20013;-80
2023/11/05 06:06:46;;;;;;;7.05;3.00;;;;;;;;;;6218630;23;20016;-79
2023/11/05 06:09:22;;;;;;;6.93;2.97;;;;;;;;;;6256896;23;20016;-79
2023/11/05 06:11:52;;;;;;;8.43;3.20;;;;;;;;;;6193967;23;20012;-80
2023/11/05 06:14:22;;;;;;;9.05;2.80;;;;;;;;;;6218506;23;20454;-80
2023/11/05 06:17:08;;;;;;;5.95;3.05;;;;;;;;;;6255938;23;20016;-81
2023/11/05 06:19:39;;;;;;;9.85;3.40;;;;;;;;;;6218699;23;20016;-80
2023/11/05 06:22:10;;;;;;;8.32;2.90;;;;;;;;;;6219454;23;20317;-80
2023/11/05 06:24:41;;;;;;;6.75;2.22;;;;;;;;;;6246798;23;20023;-80
2023/11/05 06:27:12;;;;;;;19.05;2.85;;;;;;;;;;6256434;23;20016;-80
2023/11/05 06:29:42;;;;;;;12.68;2.35;;;;;;;;;;6246133;23;20339;-79
2023/11/05 06:32:12;;;;;;;8.10;2.33;;;;;;;;;;6219703;23;20462;-79
2023/11/05 06:34:43;;;;;;;12.43;2.70;;;;;;;;;;6188612;23;20017;-80
2023/11/05 06:37:13;;;;;;;6.72;2.60;;;;;;;;;;6244381;23;20024;-79
2023/11/05 06:39:44;;;;;;;14.07;2.60;;;;;;;;;;6219587;23;20016;-79
2023/11/05 06:42:14;;;;;;;17.23;2.67;;;;;;;;;;6194591;23;20024;-79
2023/11/05 06:44:45;;;;;;;14.07;2.25;;;;;;;;;;6246366;23;20039;-80
2023/11/05 06:47:15;;;;;;;19.85;2.80;;;;;;;;;;6193709;23;20012;-80
2023/11/05 06:49:46;;;;;;;15.77;2.35;;;;;;;;;;6219413;23;20050;-79
2023/11/05 06:52:17;;;;;;;8.88;2.03;;;;;;;;;;6217951;23;20012;-79
2023/11/05 06:54:47;;;;;;;6.82;1.80;;;;;;;;;;6218420;23;20047;-79
2023/11/05 06:57:17;;;;;;;20.80;2.13;;;;;;;;;;6245198;23;20031;-80
2023/11/05 06:59:47;;;;;;;19.38;2.85;;;;;;;;;;6245571;23;20343;-79
2023/11/05 07:02:17;;;;;;;34.22;2.40;;;;;;;;;;6220372;23;20505;-79
2023/11/05 07:04:47;;;;;;;8.27;2.20;;;;;;;;;;6217971;23;20012;-79
2023/11/05 07:07:18;;;;;;;19.88;2.30;;;;;;;;;;6219057;23;20012;-79
2023/11/05 07:09:51;;;;;;;17.35;2.38;;;;;;;;;;6193717;23;20020;-79
2023/11/05 07:12:21;;;;;;;15.75;2.20;;;;;;;;;;6218378;23;20023;-80
2023/11/05 07:14:53;;;;;;;30.48;2.58;;;;;;;;;;6256126;23;20343;-80
2023/11/05 07:17:24;;;;;;;21.00;1.85;;;;;;;;;;6245522;23;20020;-79
2023/11/05 07:19:54;;;;;;;35.50;3.67;;;;;;;;;;6219509;23;20423;-79
2023/11/05 07:22:25;;;;;;;18.50;1.90;;;;;;;;;;6194847;23;20012;-80
2023/11/05 07:24:55;;;;;;;28.52;1.88;;;;;;;;;;6245195;23;20116;-80
2023/11/05 07:27:25;;;;;;;28.92;2.67;;;;;;;;;;6219288;23;20028;-81
2023/11/05 07:29:55;;;;;;;26.02;2.58;;;;;;;;;;6246115;23;20016;-79
2023/11/05 07:32:25;;;;;;;24.08;3.15;;;;;;;;;;6219824;23;20023;-79
2023/11/05 07:34:57;;;;;;;19.55;2.28;;;;;;;;;;6229302;23;20272;-80
2023/11/05 07:37:28;;;;;;;27.30;2.10;;;;;;;;;;6217962;23;20043;-80
2023/11/05 07:39:57;;;;;;;13.13;1.95;;;;;;;;;;6246430;23;20027;-79
2023/11/05 07:42:28;;;;;;;24.45;2.35;;;;;;;;;;6193640;23;20024;-79
2023/11/05 07:44:57;;;;;;;34.28;2.92;;;;;;;;;;6195220;23;20035;-79
2023/11/05 07:47:31;;;;;;;30.67;2.72;;;;;;;;;;6218558;23;20016;-79
2023/11/05 07:50:02;;;;;;;9.32;1.88;;;;;;;;;;6255982;23;20019;-80
2023/11/05 07:52:31;;;;;;;36.75;3.28;;;;;;;;;;6217559;23;20027;-79
2023/11/05 07:55:02;;;;;;;17.60;2.00;;;;;;;;;;6217728;23;20020;-79
2023/11/05 07:57:33;;;;;;;11.30;1.73;;;;;;;;;;6217553;23;20016;-80
2023/11/05 08:00:05;;;;;;;32.47;2.20;;;;;;;;;;6255563;23;20067;-79
2023/11/05 08:02:42;;;;;;;21.98;2.00;;;;;;;;;;6218701;23;20447;-79
2023/11/05 08:05:12;;;;;;;11.32;1.98;;;;;;;;;;6194167;23;20016;-79
2023/11/05 08:07:42;;;;;;;24.27;2.63;;;;;;;;;;6218788;23;20434;-79
2023/11/05 08:10:14;;;;;;;11.43;1.83;;;;;;;;;;6218056;23;20019;-79
2023/11/05 08:12:45;;;;;;;45.63;3.58;;;;;;;;;;6245112;23;20016;-79
2023/11/05 08:15:15;;;;;;;72.75;4.72;;;;;;;;;;6255455;23;20347;-79
2023/11/05 08:17:45;;;;;;;110.10;8.60;;;;;;;;;;6193985;23;20324;-79
2023/11/05 08:20:15;;;;;;;36.47;4.18;;;;;;;;;;6218866;23;20027;-79
2023/11/05 08:22:46;;;;;;;48.88;5.28;;;;;;;;;;6220385;23;20019;-80
2023/11/05 08:25:21;;;;;;;24.70;4.18;;;;;;;;;;6220117;23;20020;-81
2023/11/05 08:27:54;;;;;;;46.03;5.18;;;;;;;;;;6257267;23;20439;-79
2023/11/05 08:30:25;;;;;;;63.50;5.95;;;;;;;;;;6257351;23;20015;-79
2023/11/05 08:32:56;;;;;;;25.13;3.47;;;;;;;;;;6193676;23;20020;-79
2023/11/05 08:35:26;;;;;;;8.80;2.33;;;;;;;;;;6219041;23;20016;-79
2023/11/05 08:37:57;;;;;;;39.50;3.45;;;;;;;;;;6246428;23;20020;-78
2023/11/05 08:40:28;;;;;;;42.33;4.75;;;;;;;;;;6257313;23;20036;-78
2023/11/05 08:42:57;;;;;;;16.83;2.80;;;;;;;;;;6247573;23;20015;-79
2023/11/05 08:45:27;;;;;;;72.93;5.55;;;;;;;;;;6247350;23;20016;-78
2023/11/05 08:48:06;;;;;;;49.10;5.20;;;;;;;;;;6257786;23;20019;-79
2023/11/05 08:50:36;;;;;;;50.28;4.72;;;;;;;;;;6257544;23;20008;-79
2023/11/05 08:53:09;;;;;;;63.78;5.80;;;;;;;;;;6220641;23;20020;-79
2023/11/05 08:55:39;;;;;;;30.08;3.85;;;;;;;;;;6247398;23;20315;-79
2023/11/05 08:58:11;;;;;;;42.20;4.78;;;;;;;;;;6235967;23;20016;-78
2023/11/05 09:00:43;;;;;;;40.17;3.65;;;;;;;;;;6202626;23;20031;-78
2023/11/05 09:03:13;;;;;;;25.75;4.20;;;;;;;;;;6222676;23;20016;-79
2023/11/05 09:05:43;;;;;;;59.58;4.32;;;;;;;;;;6220137;23;20447;-80
2023/11/05 09:08:14;;;;;;;40.22;4.20;;;;;;;;;;6246831;23;20016;-79
2023/11/05 09:10:45;;;;;;;23.02;2.55;;;;;;;;;;6257465;23;20008;-79
2023/11/05 09:13:15;;;;;;;56.08;4.93;;;;;;;;;;6247270;23;20019;-79
2023/11/05 09:15:50;;;;;;;67.85;5.65;;;;;;;;;;6245294;23;20020;-79
2023/11/05 09:18:20;;;;;;;17.02;2.95;;;;;;;;;;6229755;23;20019;-79
2023/11/05 09:20:52;;;;;;;46.13;4.35;;;;;;;;;;6217812;23;20012;-79
2023/11/05 09:23:22;;;;;;;41.13;5.78;;;;;;;;;;6256366;23;20019;-79
2023/11/05 09:25:53;;;;;;;32.58;4.25;;;;;;;;;;6246368;23;20435;-80
2023/11/05 09:28:24;;;;;;;47.88;4.60;;;;;;;;;;6219141;23;20444;-80
2023/11/05 09:30:54;;;;;;;48.00;5.13;;;;;;;;;;6228540;22;20008;-79
2023/11/05 09:33:25;;;;;;;47.30;4.88;;;;;;;;;;6256370;23;20019;-78
2023/11/05 09:35:55;;;;;;;82.45;7.65;;;;;;;;;;6193884;23;20021;-79
2023/11/05 09:38:25;;;;;;;51.95;5.47;;;;;;;;;;6194768;23;20020;-79
2023/11/05 09:40:56;;;;;;;38.60;5.63;;;;;;;;;;6194056;23;20020;-80
2023/11/05 09:43:25;;;;;;;70.40;7.45;;;;;;;;;;6219554;23;20027;-79
2023/11/05 09:46:00;;;;;;;74.53;7.93;;;;;;;;;;6246812;23;20041;-79
2023/11/05 09:48:30;;;;;;;42.65;6.07;;;;;;;;;;6256604;23;20336;-79
2023/11/05 09:51:01;;;;;;;23.13;6.93;;;;;;;;;;6246535;23;20019;-79
2023/11/05 09:53:31;;;;;;;17.70;7.53;;;;;;;;;;6256381;23;20023;-79
2023/11/05 09:56:02;;;;;;;19.35;6.63;;;;;;;;;;6246763;23;20020;-79
2023/11/05 09:58:32;;;;;;;39.08;6.20;;;;;;;;;;6218655;23;20027;-79
2023/11/05 10:01:05;;;;;;;23.42;5.78;;;;;;;;;;6218640;23;20012;-79
2023/11/05 10:03:38;;;;;;;19.08;5.75;;;;;;;;;;6255850;23;20008;-79
2023/11/05 10:06:15;;;;;;;23.13;5.68;;;;;;;;;;6220373;23;20023;-79
2023/11/05 10:08:46;;;;;;;32.60;6.05;;;;;;;;;;6219393;23;20466;-79
2023/11/05 10:11:19;;;;;;;33.33;5.93;;;;;;;;;;6246710;23;20012;-79
2023/11/05 10:14:45;;;;;;;50.22;6.50;;;;;;;;;;6257185;23;20340;-79
2023/11/05 10:17:16;;;;;;;23.58;6.35;;;;;;;;;;6246236;23;20019;-79
2023/11/05 10:20:06;;;;;;;16.98;5.65;;;;;;;;;;6232141;23;20343;-79
2023/11/05 10:22:43;;;;;;;22.10;6.57;;;;;;;;;;6257159;23;20008;-80
2023/11/05 10:25:25;;;;;;;19.52;5.57;;;;;;;;;;6230860;23;20435;-80
2023/11/05 10:27:58;;;;;;;;;;;;;;;;;;6257617;23;20294;-78
2023/11/05 10:30:31;;;;;;;14.30;6.22;;;;;;;;;;6219286;23;19915;-80
2023/11/05 10:33:03;;;;;;;15.10;6.28;;;;;;;;;;6246991;23;20323;-80
2023/11/05 10:35:35;;;;;;;14.40;5.95;;;;;;;;;;6229811;23;20016;-80
2023/11/05 10:38:14;;;;;;;16.60;6.15;;;;;;;;;;6255945;23;20008;-80
2023/11/05 10:40:46;;;;;;;14.48;5.63;;;;;;;;;;6230067;23;20022;-80
2023/11/05 10:43:20;;;;;;;14.55;5.78;;;;;;;;;;6255706;23;20339;-80
2023/11/05 10:45:55;;;;;;;15.88;6.28;;;;;;;;;;6256541;23;20008;-80
2023/11/05 10:48:28;;;;;;;14.30;6.00;;;;;;;;;;6256050;23;20012;-79
2023/11/05 10:51:00;;;;;;;16.00;6.75;;;;;;;;;;6245320;23;20027;-79
2023/11/05 10:53:31;;;;;;;;;;;;;;;;;;6256871;23;20027;-80
2023/11/05 10:56:21;;;;;;;23.27;10.05;;;;;;;;;;6243861;23;19922;-80
2023/11/05 10:58:53;;;;;;;22.73;11.48;;;;;;;;;;6244121;23;20473;-80
2023/11/05 11:01:29;;;;;;;27.75;14.38;;;;;;;;;;6228268;23;20023;-80
2023/11/05 11:04:06;;;;;;;13.85;6.22;;;;;;;;;;6253978;23;20347;-79
2023/11/05 11:06:40;;;;;;;11.25;5.72;;;;;;;;;;6192609;23;20039;-80
2023/11/05 11:09:27;;;;;;;14.65;6.88;;;;;;;;;;6254240;23;20012;-80
2023/11/05 11:12:33;;;;;;;10.60;4.75;;;;;;;;;;6216691;23;20443;-80
2023/11/05 11:15:08;;;;;;;7.93;3.92;;;;;;;;;;6254298;23;20012;-80
2023/11/05 11:17:41;;;;;;;18.08;9.52;;;;;;;;;;6254561;23;20012;-79
2023/11/05 11:20:15;;;;;;;21.45;12.90;;;;;;;;;;6254178;23;20019;-80
2023/11/05 11:22:46;;;;;;;15.98;8.80;;;;;;;;;;6254892;23;20008;-80
2023/11/05 11:25:17;;;;;;;17.25;6.30;;;;;;;;;;6228406;23;20015;-80
2023/11/05 11:27:50;;;;;;;18.83;8.02;;;;;;;;;;6244287;23;20019;-80
2023/11/05 11:30:21;;;;;;;15.25;7.15;;;;;;;;;;6254084;23;20339;-80
2023/11/05 11:32:53;;;;;;;14.40;7.25;;;;;;;;;;6244751;23;20332;-80
2023/11/05 11:35:23;;;;;;;10.77;5.82;;;;;;;;;;6228277;23;20019;-80
2023/11/05 11:37:57;;;;;;;44.22;24.15;;;;;;;;;;6254220;23;20016;-80
2023/11/05 11:40:28;;;;;;;71.57;39.97;;;;;;;;;;6254530;23;20016;-80
2023/11/05 11:42:58;;;;;;;13.50;5.50;;;;;;;;;;6244255;23;20016;-80
2023/11/05 11:45:28;;;;;;;8.93;3.60;;;;;;;;;;6244217;23;20020;-80
2023/11/05 11:48:04;;;;;;;8.38;2.97;;;;;;;;;;6217072;23;20027;-80
2023/11/05 11:50:35;;;;;;;6.45;2.75;;;;;;;;;;6216593;23;20022;-81
2023/11/05 11:53:05;;;;;;;6.50;3.08;;;;;;;;;;6254399;23;20015;-81
2023/11/05 11:55:35;;;;;;;6.25;2.60;;;;;;;;;;6245698;23;20489;-81
2023/11/05 11:58:07;;;;;;;17.80;8.02;;;;;;;;;;6246160;23;20027;-81
2023/11/05 12:00:40;;;;;;;;;;;;;;;;;;6257103;23;20008;-80
2023/11/05 12:03:11;;;;;;;19.63;10.40;;;;;;;;;;6256298;23;19923;-81
2023/11/05 12:05:42;;;;;;;3.25;1.20;;;;;;;;;;6219729;23;20028;-82
2023/11/05 12:08:13;;;;;;;2.45;1.10;;;;;;;;;;6245562;23;20043;-81
2023/11/05 12:10:44;;;;;;;3.88;1.33;;;;;;;;;;6217976;23;20055;-82
2023/11/05 12:13:16;;;;;;;5.03;2.28;;;;;;;;;;6228738;23;20016;-80
2023/11/05 12:15:50;;;;;;;27.17;11.30;;;;;;;;;;6256882;23;20008;-79
2023/11/05 12:18:20;;;;;;;10.63;4.50;;;;;;;;;;6230374;23;20012;-81
2023/11/05 12:20:51;;;;;;;1.10;0.60;;;;;;;;;;6229540;23;20031;-82
2023/11/05 12:23:21;;;;;;;1.25;0.57;;;;;;;;;;6246623;23;20027;-80
2023/11/05 12:26:00;;;;;;;0.85;0.40;;;;;;;;;;6245966;23;20023;-81
2023/11/05 12:28:32;;;;;;;1.10;0.40;;;;;;;;;;6256978;23;20012;-81
2023/11/05 12:31:04;;;;;;;1.23;0.45;;;;;;;;;;6221819;23;20320;-80
2023/11/05 12:33:36;;;;;;;2.95;1.35;;;;;;;;;;6216105;23;20336;-82
2023/11/05 12:36:07;;;;;;;1.45;0.60;;;;;;;;;;6226155;23;20012;-81
2023/11/05 12:38:38;;;;;;;0.80;0.50;;;;;;;;;;6226454;23;20360;-81
2023/11/05 12:41:09;;;;;;;0.60;0.40;;;;;;;;;;6226667;23;20020;-81
2023/11/05 12:43:39;;;;;;;1.60;0.50;;;;;;;;;;6189896;23;20028;-81
2023/11/05 12:46:09;;;;;;;0.82;0.60;;;;;;;;;;6189172;23;20032;-82
2023/11/05 12:48:39;;;;;;;1.10;0.70;;;;;;;;;;6215893;23;20451;-82
2023/11/05 12:51:09;;;;;;;0.45;0.32;;;;;;;;;;6216492;23;20017;-83
2023/11/05 12:53:39;;;;;;;2.00;0.80;;;;;;;;;;6187689;23;20448;-83
2023/11/05 12:56:10;;;;;;;1.20;0.57;;;;;;;;;;6215950;23;20017;-83
2023/11/05 12:58:40;;;;;;;1.52;0.80;;;;;;;;;;6214942;23;20016;-84
2023/11/05 13:01:12;;;;;;;1.77;0.57;;;;;;;;;;6226105;23;20344;-81
2023/11/05 13:03:41;;;;;;;2.17;0.70;;;;;;;;;;6217323;23;20028;-82
2023/11/05 13:06:14;;;;;;;;;;;;;;;;;;6235116;23;20015;-81
2023/11/05 13:08:44;;;;;;;1.40;0.73;;;;;;;;;;6225774;23;19926;-82
2023/11/05 13:11:17;;;;;;;5.88;3.05;;;;;;;;;;6230792;23;20478;-81
2023/11/05 13:13:47;;;;;;;2.13;0.80;;;;;;;;;;6227968;23;20012;-83
2023/11/05 13:16:18;;;;;;;1.15;0.70;;;;;;;;;;6214403;23;20020;-80
2023/11/05 13:18:49;;;;;;;1.90;0.60;;;;;;;;;;6165104;23;20013;-82
2023/11/05 13:21:20;;;;;;;1.70;0.75;;;;;;;;;;6163390;23;20020;-82
2023/11/05 13:23:49;;;;;;;1.35;0.80;;;;;;;;;;6216263;23;20040;-81
2023/11/05 13:26:19;;;;;;;2.58;0.50;;;;;;;;;;6215640;23;20036;-83
2023/11/05 13:28:49;;;;;;;3.03;0.82;;;;;;;;;;6188536;23;20020;-82
2023/11/05 13:31:19;;;;;;;1.15;0.65;;;;;;;;;;6196616;23;20016;-82
2023/11/05 13:33:51;;;;;;;1.50;0.60;;;;;;;;;;6256609;23;20015;-83
2023/11/05 13:36:21;;;;;;;1.85;0.90;;;;;;;;;;6255623;23;20016;-82
2023/11/05 13:38:52;;;;;;;1.00;0.68;;;;;;;;;;6219770;23;20017;-81
2023/11/05 13:41:23;;;;;;;0.73;0.43;;;;;;;;;;6257523;23;20012;-83
2023/11/05 13:43:53;;;;;;;1.35;0.50;;;;;;;;;;6218221;23;20016;-82
2023/11/05 13:46:24;;;;;;;0.95;0.60;;;;;;;;;;6219600;23;20020;-81
2023/11/05 13:48:54;;;;;;;1.73;0.70;;;;;;;;;;6247569;23;20020;-81
2023/11/05 13:51:25;;;;;;;1.55;0.80;;;;;;;;;;6246930;23;20019;-80
2023/11/05 13:53:57;;;;;;;1.55;0.70;;;;;;;;;;6229514;23;20016;-81
2023/11/05 13:56:27;;;;;;;2.45;1.13;;;;;;;;;;6255461;23;20016;-80
2023/11/05 13:58:58;;;;;;;1.27;0.80;;;;;;;;;;6245198;23;20023;-81
2023/11/05 14:01:29;;;;;;;1.45;0.75;;;;;;;;;;6246155;23;20020;-81
2023/11/05 14:03:59;;;;;;;1.52;0.60;;;;;;;;;;6256264;23;20037;-85
2023/11/05 14:06:29;;;;;;;1.10;0.70;;;;;;;;;;6245351;23;20482;-82
2023/11/05 14:09:00;;;;;;;1.25;0.65;;;;;;;;;;6245031;23;20067;-82
2023/11/05 14:11:30;;;;;;;1.42;0.50;;;;;;;;;;6219649;23;20347;-81
2023/11/05 14:14:02;;;;;;;1.35;0.65;;;;;;;;;;6245810;23;20023;-82
2023/11/05 14:16:33;;;;;;;2.60;0.75;;;;;;;;;;6255418;23;20339;-82
2023/11/05 14:19:03;;;;;;;2.47;0.60;;;;;;;;;;6244972;23;20039;-82
2023/11/05 14:21:33;;;;;;;2.00;0.68;;;;;;;;;;6245183;23;20034;-82
2023/11/05 14:24:04;;;;;;;1.50;0.52;;;;;;;;;;6244993;23;20027;-82
2023/11/05 14:26:34;;;;;;;1.15;0.65;;;;;;;;;;6217231;23;20051;-82
2023/11/05 14:29:04;;;;;;;1.05;0.50;;;;;;;;;;6244797;23;20351;-83
2023/11/05 14:31:38;;;;;;;3.53;0.70;;;;;;;;;;6216929;23;20450;-83
2023/11/05 14:34:08;;;;;;;0.70;0.43;;;;;;;;;;6254886;23;20474;-84
2023/11/05 14:36:39;;;;;;;1.80;0.65;;;;;;;;;;6255767;23;20375;-86
2023/11/05 14:39:10;;;;;;;1.92;0.60;;;;;;;;;;6245362;23;20451;-83
2023/11/05 14:41:40;;;;;;;1.35;0.80;;;;;;;;;;6245642;23;20045;-83
2023/11/05 14:44:10;;;;;;;1.40;0.63;;;;;;;;;;6244886;23;20016;-83
2023/11/05 14:46:41;;;;;;;1.80;0.80;;;;;;;;;;6245697;23;20359;-82
2023/11/05 14:49:12;;;;;;;0.98;0.65;;;;;;;;;;6255245;23;20019;-81
2023/11/05 14:51:42;;;;;;;2.17;0.98;;;;;;;;;;6244808;23;20016;-83
2023/11/05 14:54:12;;;;;;;1.83;0.88;;;;;;;;;;6244715;23;20016;-84
2023/11/05 14:56:42;;;;;;;1.38;0.70;;;;;;;;;;6244783;23;20344;-82
2023/11/05 14:59:14;;;;;;;0.63;0.40;;;;;;;;;;6215334;23;20347;-82
2023/11/05 15:01:44;;;;;;;1.13;0.60;;;;;;;;;;6244631;23;20013;-84